Time;durP1;ratioP1;P1;durP2;ratioP2;P2;SDS_P1;SDS_P2;PMS_P1;PMS_P2;Temp;Humidity;BMP_temperature;BMP_pressure;BME280_temperature;BME280_humidity;BME280_pressure;Samples;Min_cycle;Max_cycle;Signal;HPM_P1;HPM_P2
2024/02/24 00:00:30;;;;;;;4.45;1.20;;;4.60;99.90;;;-148.53;100.00;63986.66;5022050;28;20519;-78
2024/02/24 00:02:56;;;;;;;3.28;1.00;;;4.60;99.90;;;-148.53;100.00;63986.66;5014084;28;20132;-77
2024/02/24 00:05:26;;;;;;;5.55;1.15;;;4.60;99.90;;;-148.53;100.00;63986.66;5020944;28;20107;-77
2024/02/24 00:07:55;;;;;;;3.97;1.27;;;4.60;99.90;;;-148.53;100.00;63986.66;5036698;28;20548;-78
2024/02/24 00:10:22;;;;;;;6.07;1.33;;;4.60;99.90;;;-148.53;100.00;63986.66;5022644;28;20124;-78
2024/02/24 00:12:48;;;;;;;8.98;1.65;;;4.60;99.90;;;-148.53;100.00;63986.66;5018588;28;20045;-77
2024/02/24 00:15:14;;;;;;;5.70;1.20;;;4.60;99.90;;;-148.53;100.00;63986.66;5025712;28;20500;-77
2024/02/24 00:17:39;;;;;;;5.97;1.25;;;4.60;99.90;;;-148.53;100.00;63986.66;5029275;28;20029;-78
2024/02/24 00:20:09;;;;;;;5.15;1.25;;;4.60;99.90;;;-148.53;100.00;63986.66;5014859;28;20458;-78
2024/02/24 00:22:36;;;;;;;7.45;1.40;;;4.50;99.90;;;-148.53;100.00;63986.66;5023067;28;20045;-77
2024/02/24 00:25:02;;;;;;;4.43;1.20;;;4.50;99.90;;;-148.53;100.00;63986.66;5019679;28;20055;-77
2024/02/24 00:27:28;;;;;;;4.80;1.20;;;4.60;99.90;;;-148.53;100.00;63986.66;5029254;28;20037;-78
2024/02/24 00:29:54;;;;;;;3.88;1.33;;;4.70;99.90;;;-148.53;100.00;63986.66;5020593;28;20066;-78
2024/02/24 00:32:20;;;;;;;8.18;1.33;;;4.70;99.90;;;-148.53;100.00;63986.66;5012200;28;20050;-76
2024/02/24 00:34:46;;;;;;;6.07;1.23;;;4.70;99.90;;;-148.53;100.00;63986.66;5013403;28;20052;-77
2024/02/24 00:37:12;;;;;;;6.50;1.27;;;4.60;99.90;;;-148.53;100.00;63986.66;5016627;28;20038;-77
2024/02/24 00:39:38;;;;;;;4.97;1.20;;;4.40;99.90;;;-148.53;100.00;63986.66;5012657;28;20046;-77
2024/02/24 00:42:04;;;;;;;5.18;1.30;;;4.30;99.90;;;-148.53;100.00;63986.66;5023815;28;20040;-77
2024/02/24 00:44:33;;;;;;;3.47;0.93;;;4.20;99.90;;;-148.53;100.00;63986.66;5013276;28;20065;-77
2024/02/24 00:46:58;;;;;;;4.82;1.20;;;4.20;99.90;;;-148.53;100.00;63986.66;5013276;28;20046;-77
2024/02/24 00:49:24;;;;;;;6.75;1.40;;;4.20;99.90;;;-148.53;100.00;63986.66;5024901;28;20396;-77
2024/02/24 00:51:50;;;;;;;5.15;1.40;;;4.30;99.90;;;-148.53;100.00;63986.66;5024879;28;20040;-77
2024/02/24 00:54:16;;;;;;;3.28;1.08;;;4.20;99.90;;;-148.53;100.00;63986.66;5025674;28;20486;-77
2024/02/24 00:56:41;;;;;;;4.80;1.27;;;4.10;99.90;;;-148.53;100.00;63986.66;5040616;28;20088;-78
2024/02/24 00:59:07;;;;;;;3.45;0.90;;;4.00;99.90;;;-148.53;100.00;63986.66;5043975;28;20041;-78
2024/02/24 01:01:33;;;;;;;4.13;1.02;;;3.90;99.90;;;-148.53;100.00;63986.66;5030581;28;20048;-78
2024/02/24 01:04:00;;;;;;;5.07;1.13;;;3.80;99.90;;;-148.53;100.00;63986.66;5016888;28;20037;-78
2024/02/24 01:06:26;;;;;;;3.38;1.08;;;3.70;99.90;;;-148.53;100.00;63986.66;5020881;28;20037;-77
2024/02/24 01:08:51;;;;;;;4.80;1.23;;;3.60;99.90;;;-148.53;100.00;63986.66;5017596;28;20044;-77
2024/02/24 01:11:17;;;;;;;7.93;1.10;;;3.60;99.90;;;-148.53;100.00;63986.66;5012657;28;20846;-78
2024/02/24 01:13:43;;;;;;;4.35;0.90;;;3.60;99.90;;;-148.53;100.00;63986.66;5018985;28;20046;-78
2024/02/24 01:16:09;;;;;;;3.53;1.08;;;3.50;99.90;;;-148.53;100.00;63986.66;5020321;28;20084;-78
2024/02/24 01:18:35;;;;;;;5.65;1.25;;;3.60;99.90;;;-148.53;100.00;63986.66;5017814;28;20034;-77
2024/02/24 01:21:04;;;;;;;5.65;1.23;;;3.70;99.90;;;-148.53;100.00;63986.66;5013520;28;20443;-77
2024/02/24 01:23:30;;;;;;;4.57;0.98;;;3.80;99.90;;;-148.53;100.00;63986.66;5017454;28;20474;-77
2024/02/24 01:25:56;;;;;;;6.63;1.60;;;3.80;99.90;;;-148.53;100.00;63986.66;5043460;28;20068;-77
2024/02/24 01:28:21;;;;;;;8.02;1.30;;;3.90;99.90;;;-148.53;100.00;63986.66;5035561;28;20048;-78
2024/02/24 01:30:47;;;;;;;4.82;1.20;;;3.80;99.90;;;-148.53;100.00;63986.66;5023244;28;20077;-78
2024/02/24 01:33:13;;;;;;;5.55;1.40;;;3.80;99.90;;;-148.53;100.00;63986.66;5023531;28;20034;-78
2024/02/24 01:35:39;;;;;;;4.43;1.25;;;3.80;99.90;;;-148.53;100.00;63986.66;5029193;28;20088;-78
2024/02/24 01:38:05;;;;;;;5.35;1.13;;;3.80;99.90;;;-148.53;100.00;63986.66;5013330;28;20040;-79
2024/02/24 01:40:31;;;;;;;3.92;1.23;;;3.70;99.90;;;-148.53;100.00;63986.66;5022614;28;20045;-78
2024/02/24 01:42:57;;;;;;;4.82;1.10;;;3.50;99.90;;;-148.53;100.00;63986.66;5020793;28;20041;-78
2024/02/24 01:45:23;;;;;;;7.75;1.75;;;3.40;99.90;;;-148.53;100.00;63986.66;5022199;28;20053;-78
2024/02/24 01:47:50;;;;;;;6.18;1.25;;;3.40;99.90;;;-148.53;100.00;63986.66;5023913;28;20043;-79
2024/02/24 01:50:16;;;;;;;5.10;1.05;;;3.30;99.90;;;-148.53;100.00;63986.66;5012742;28;20034;-79
2024/02/24 01:52:48;;;;;;;4.88;1.17;;;3.20;99.90;;;-148.53;100.00;63986.66;5012382;28;20033;-78
2024/02/24 01:55:17;;;;;;;5.00;1.40;;;3.10;99.90;;;-148.53;100.00;63986.66;5026445;28;20041;-79
2024/02/24 01:57:44;;;;;;;4.53;1.30;;;3.10;99.90;;;-148.53;100.00;63986.66;5023466;28;20036;-78
2024/02/24 02:00:12;;;;;;;4.85;1.20;;;3.10;99.90;;;-148.53;100.00;63986.66;5039482;28;20034;-78
2024/02/24 02:02:45;;;;;;;5.07;1.42;;;3.20;99.90;;;-148.53;100.00;63986.66;5018933;28;20037;-78
2024/02/24 02:05:12;;;;;;;7.00;1.37;;;3.30;99.90;;;-148.53;100.00;63986.66;5020591;28;20042;-78
2024/02/24 02:07:37;;;;;;;4.38;1.30;;;3.30;99.90;;;-148.53;100.00;63986.66;5011374;28;20295;-78
2024/02/24 02:10:05;;;;;;;4.80;1.15;;;3.30;99.90;;;-148.53;100.00;63986.66;5033858;28;20126;-79
2024/02/24 02:12:34;;;;;;;8.63;1.40;;;3.30;99.90;;;-148.53;100.00;63986.66;5014862;28;20092;-78
2024/02/24 02:15:00;;;;;;;4.07;1.40;;;3.20;99.90;;;-148.53;100.00;63986.66;5022787;28;20037;-78
2024/02/24 02:17:26;;;;;;;4.20;1.52;;;3.30;99.90;;;-148.53;100.00;63986.66;5017751;28;20033;-78
2024/02/24 02:19:51;;;;;;;4.90;1.23;;;3.30;99.90;;;-148.53;100.00;63986.66;5028025;28;20041;-78
2024/02/24 02:22:18;;;;;;;6.35;1.50;;;3.20;99.90;;;-148.53;100.00;63986.66;5035342;28;20055;-78
2024/02/24 02:24:45;;;;;;;4.05;1.10;;;3.30;99.90;;;-148.53;100.00;63986.66;5021761;28;20053;-78
2024/02/24 02:27:12;;;;;;;4.78;1.20;;;3.30;99.90;;;-148.53;100.00;63986.66;5013546;28;20037;-78
2024/02/24 02:29:37;;;;;;;4.18;1.50;;;3.30;99.90;;;-148.53;100.00;63986.66;5022092;28;20084;-78
2024/02/24 02:32:03;;;;;;;8.75;1.95;;;3.20;99.90;;;-148.53;100.00;63986.66;5037490;28;20026;-78
2024/02/24 02:34:29;;;;;;;4.82;1.30;;;3.20;99.90;;;-148.53;100.00;63986.66;5021961;28;20141;-78
2024/02/24 02:36:55;;;;;;;4.35;1.60;;;3.10;99.90;;;-148.53;100.00;63986.66;5013299;28;20112;-78
2024/02/24 02:39:21;;;;;;;4.18;1.00;;;3.00;99.90;;;-148.53;100.00;63986.66;5022904;28;20042;-78
2024/02/24 02:41:46;;;;;;;6.55;1.38;;;2.90;99.90;;;-148.53;100.00;63986.66;5015666;28;20046;-80
2024/02/24 02:44:14;;;;;;;7.07;1.27;;;2.80;99.90;;;-148.53;100.00;63986.66;5031219;28;20109;-78
2024/02/24 02:46:47;;;;;;;6.45;1.17;;;2.60;99.90;;;-148.53;100.00;63986.66;5014896;28;20029;-79
2024/02/24 02:49:13;;;;;;;2.42;1.02;;;2.40;99.90;;;-148.53;100.00;63986.66;5032692;28;20034;-78
2024/02/24 02:51:39;;;;;;;3.90;1.38;;;2.30;99.90;;;-148.53;100.00;63986.66;5011884;28;20042;-79
2024/02/24 02:54:04;;;;;;;5.28;1.30;;;2.20;99.90;;;-148.53;100.00;63986.66;5019215;28;20052;-78
2024/02/24 02:56:30;;;;;;;5.38;1.40;;;2.30;99.90;;;-148.53;100.00;63986.66;5014698;28;20037;-79
2024/02/24 02:58:56;;;;;;;4.13;1.38;;;2.30;99.90;;;-148.53;100.00;63986.66;5012180;28;20045;-78
2024/02/24 03:01:22;;;;;;;5.95;1.30;;;2.30;99.90;;;-148.53;100.00;63986.66;5015168;28;20042;-78
2024/02/24 03:03:47;;;;;;;5.25;1.42;;;2.20;99.90;;;-148.53;100.00;63986.66;5021860;28;20129;-80
2024/02/24 03:06:13;;;;;;;4.68;1.67;;;2.20;99.90;;;-148.53;100.00;63986.66;5028328;28;20034;-79
2024/02/24 03:08:39;;;;;;;5.18;1.20;;;2.00;99.90;;;-148.53;100.00;63986.66;5022751;28;20121;-80
2024/02/24 03:11:04;;;;;;;6.75;1.17;;;2.00;99.90;;;-148.53;100.00;63986.66;5019206;28;20057;-80
2024/02/24 03:13:31;;;;;;;5.32;1.48;;;1.90;99.90;;;-148.53;100.00;63986.66;5042079;28;20045;-80
2024/02/24 03:15:57;;;;;;;4.18;1.20;;;1.70;99.90;;;-148.53;100.00;63986.66;5015050;28;20121;-80
2024/02/24 03:18:23;;;;;;;3.85;1.40;;;1.60;99.90;;;-148.53;100.00;63986.66;5017937;28;20037;-79
2024/02/24 03:20:48;;;;;;;5.53;1.33;;;1.70;99.90;;;-148.53;100.00;63986.66;5024623;28;20034;-79
2024/02/24 03:23:14;;;;;;;5.25;1.33;;;1.70;99.90;;;-148.53;100.00;63986.66;5021937;28;20041;-79
2024/02/24 03:25:40;;;;;;;4.25;1.38;;;1.60;99.90;;;-148.53;100.00;63986.66;5035212;28;20072;-79
2024/02/24 03:28:06;;;;;;;2.92;0.90;;;1.70;99.90;;;-148.53;100.00;63986.66;5022215;28;20488;-80
2024/02/24 03:30:32;;;;;;;7.38;1.10;;;1.80;99.90;;;-148.53;100.00;63986.66;5014912;28;20042;-79
2024/02/24 03:32:58;;;;;;;5.97;1.40;;;1.90;99.90;;;-148.53;100.00;63986.66;5036740;28;20402;-79
2024/02/24 03:35:23;;;;;;;3.95;1.20;;;2.00;99.90;;;-148.53;100.00;63986.66;5046635;28;20042;-79
2024/02/24 03:37:50;;;;;;;4.70;1.20;;;2.00;99.90;;;-148.53;100.00;63986.66;5018623;28;20029;-79
2024/02/24 03:40:17;;;;;;;2.80;1.48;;;2.10;99.90;;;-148.53;100.00;63986.66;5030241;28;20370;-80
2024/02/24 03:42:42;;;;;;;5.15;1.23;;;2.10;99.90;;;-148.53;100.00;63986.66;5020124;28;20042;-79
2024/02/24 03:45:09;;;;;;;4.03;1.17;;;2.20;99.90;;;-148.53;100.00;63986.66;5036722;28;20039;-79
2024/02/24 03:47:35;;;;;;;4.03;1.30;;;2.50;99.90;;;-148.53;100.00;63986.66;5014619;28;20045;-79
2024/02/24 03:50:01;;;;;;;4.28;1.25;;;2.70;99.90;;;-148.53;100.00;63986.66;5018695;28;20045;-79
2024/02/24 03:52:28;;;;;;;5.50;1.40;;;2.90;99.90;;;-148.53;100.00;63986.66;5013800;28;20433;-79
2024/02/24 03:54:53;;;;;;;3.67;1.17;;;3.10;99.90;;;-148.53;100.00;63986.66;5028196;28;20045;-79
2024/02/24 03:57:19;;;;;;;3.75;1.35;;;3.20;99.90;;;-148.53;100.00;63986.66;5014492;28;20374;-80
2024/02/24 03:59:45;;;;;;;8.07;1.17;;;3.40;99.90;;;-148.53;100.00;63986.66;5015128;28;20038;-79
2024/02/24 04:02:11;;;;;;;4.93;1.20;;;3.40;99.90;;;-148.53;100.00;63986.66;5046530;28;20437;-79
2024/02/24 04:04:36;;;;;;;5.25;1.15;;;3.50;99.90;;;-148.53;100.00;63986.66;5022630;28;20061;-78
2024/02/24 04:07:02;;;;;;;3.78;1.25;;;3.60;99.90;;;-148.53;100.00;63986.66;5015728;28;20037;-79
2024/02/24 04:09:28;;;;;;;6.70;1.20;;;3.50;99.90;;;-148.53;100.00;63986.66;5026765;28;20068;-80
2024/02/24 04:11:53;;;;;;;5.50;1.30;;;3.50;99.90;;;-148.53;100.00;63986.66;5030079;28;20507;-78
2024/02/24 04:14:19;;;;;;;3.95;1.23;;;3.30;99.90;;;-148.53;100.00;63986.66;5018715;28;20034;-77
2024/02/24 04:16:45;;;;;;;4.43;1.08;;;3.30;99.90;;;-148.53;100.00;63986.66;5035095;28;20413;-77
2024/02/24 04:19:10;;;;;;;5.72;1.30;;;3.40;99.90;;;-148.53;100.00;63986.66;5028662;28;20065;-77
2024/02/24 04:21:36;;;;;;;5.22;1.05;;;3.70;99.90;;;-148.53;100.00;63986.66;5032232;28;20125;-77
2024/02/24 04:24:05;;;;;;;6.95;1.10;;;3.80;99.90;;;-148.53;100.00;63986.66;5030047;28;20078;-78
2024/02/24 04:26:30;;;;;;;5.43;1.00;;;3.80;99.90;;;-148.53;100.00;63986.66;5015991;28;20117;-79
2024/02/24 04:28:56;;;;;;;4.20;1.05;;;3.80;99.90;;;-148.53;100.00;63986.66;5024074;28;20037;-77
2024/02/24 04:31:22;;;;;;;5.53;1.35;;;3.70;99.90;;;-148.53;100.00;63986.66;5028624;28;20118;-78
2024/02/24 04:33:48;;;;;;;3.67;1.30;;;3.70;99.90;;;-148.53;100.00;63986.66;5017472;28;20076;-78
2024/02/24 04:36:13;;;;;;;2.60;0.80;;;3.70;99.90;;;-148.53;100.00;63986.66;5017687;28;20445;-78
2024/02/24 04:38:39;;;;;;;2.35;0.95;;;3.70;99.90;;;-148.53;100.00;63986.66;5016551;28;20022;-78
2024/02/24 04:41:05;;;;;;;7.10;1.02;;;3.70;99.90;;;-148.53;100.00;63986.66;5013561;28;20042;-77
2024/02/24 04:43:30;;;;;;;4.68;1.10;;;3.80;99.90;;;-148.53;100.00;63986.66;5028370;28;20061;-77
2024/02/24 04:45:56;;;;;;;4.82;1.08;;;4.00;99.90;;;-148.53;100.00;63986.66;5013313;28;20036;-77
2024/02/24 04:48:22;;;;;;;4.13;1.10;;;4.20;99.90;;;-148.53;100.00;63986.66;5015055;28;20099;-77
2024/02/24 04:50:48;;;;;;;4.00;1.10;;;4.20;99.90;;;-148.53;100.00;63986.66;5023084;28;20049;-77
2024/02/24 04:53:14;;;;;;;6.20;1.20;;;4.30;99.90;;;-148.53;100.00;63986.66;5022471;28;20038;-78
2024/02/24 04:55:39;;;;;;;2.58;0.77;;;4.20;99.90;;;-148.53;100.00;63986.66;5016835;28;20048;-77
2024/02/24 04:58:05;;;;;;;4.88;1.30;;;4.20;99.90;;;-148.53;100.00;63986.66;5015470;28;20082;-77
2024/02/24 05:00:31;;;;;;;3.45;1.13;;;4.20;99.90;;;-148.53;100.00;63986.66;5017881;28;20501;-77
2024/02/24 05:02:56;;;;;;;4.68;1.00;;;4.10;99.90;;;-148.53;100.00;63986.66;5012979;28;20046;-78
2024/02/24 05:05:22;;;;;;;6.10;1.60;;;4.00;99.90;;;-148.53;100.00;63986.66;5023567;28;20503;-78
2024/02/24 05:07:49;;;;;;;4.30;1.10;;;4.00;99.90;;;-148.53;100.00;63986.66;5025151;28;20041;-77
2024/02/24 05:10:15;;;;;;;4.60;1.20;;;4.00;99.90;;;-148.53;100.00;63986.66;5017413;28;20041;-78
2024/02/24 05:12:47;;;;;;;3.63;1.35;;;4.00;99.90;;;-148.53;100.00;63986.66;5034524;28;20029;-78
2024/02/24 05:15:16;;;;;;;2.80;0.90;;;4.00;99.90;;;-148.53;100.00;63986.66;5017435;28;20121;-78
2024/02/24 05:17:43;;;;;;;6.35;1.30;;;3.90;99.90;;;-148.53;100.00;63986.66;5012917;28;20416;-78
2024/02/24 05:20:10;;;;;;;6.75;1.30;;;3.80;99.90;;;-148.53;100.00;63986.66;5016562;28;20119;-78
2024/02/24 05:22:36;;;;;;;5.47;1.10;;;3.60;99.90;;;-148.53;100.00;63986.66;5033083;28;20042;-79
2024/02/24 05:25:02;;;;;;;3.35;1.20;;;3.60;99.90;;;-148.53;100.00;63986.66;5023166;28;20045;-79
2024/02/24 05:27:30;;;;;;;8.30;1.35;;;3.60;99.90;;;-148.53;100.00;63986.66;5020957;28;20041;-78
2024/02/24 05:29:56;;;;;;;6.13;1.20;;;3.50;99.90;;;-148.53;100.00;63986.66;5017351;28;20440;-79
2024/02/24 05:32:21;;;;;;;6.70;1.35;;;3.50;99.90;;;-148.53;100.00;63986.66;5011865;28;20038;-78
2024/02/24 05:34:47;;;;;;;3.13;1.40;;;3.50;99.90;;;-148.53;100.00;63986.66;5012771;28;20034;-79
2024/02/24 05:37:13;;;;;;;4.47;1.40;;;3.50;99.90;;;-148.53;100.00;63986.66;5015515;28;20393;-79
2024/02/24 05:39:39;;;;;;;2.80;1.10;;;3.50;99.90;;;-148.53;100.00;63986.66;5012629;28;20038;-80
2024/02/24 05:42:05;;;;;;;5.43;1.27;;;3.40;99.90;;;-148.53;100.00;63986.66;5020608;28;20029;-79
2024/02/24 05:44:31;;;;;;;7.43;1.30;;;3.30;99.90;;;-148.53;100.00;63986.66;5015685;28;20504;-79
2024/02/24 05:46:57;;;;;;;6.28;1.67;;;3.30;99.90;;;-148.53;100.00;63986.66;5015801;28;20037;-79
2024/02/24 05:49:23;;;;;;;5.15;1.30;;;3.30;99.90;;;-148.53;100.00;63986.66;4999072;28;20104;-79
2024/02/24 05:51:49;;;;;;;4.38;1.02;;;3.40;99.90;;;-148.53;100.00;63986.66;5021117;28;20432;-78
2024/02/24 05:54:14;;;;;;;5.22;1.38;;;3.40;99.90;;;-148.53;100.00;63986.66;5021054;28;20050;-78
2024/02/24 05:56:41;;;;;;;4.43;1.45;;;3.50;99.90;;;-148.53;100.00;63986.66;5025980;28;20033;-78
2024/02/24 05:59:07;;;;;;;6.28;1.73;;;3.50;99.90;;;-148.53;100.00;63986.66;5027658;28;20080;-79
2024/02/24 06:01:33;;;;;;;5.35;1.20;;;3.60;99.90;;;-148.53;100.00;63986.66;5015533;28;20441;-79
2024/02/24 06:03:58;;;;;;;2.78;1.02;;;3.60;99.90;;;-148.53;100.00;63986.66;5017475;28;20046;-78
2024/02/24 06:06:24;;;;;;;4.93;1.30;;;3.70;99.90;;;-148.53;100.00;63986.66;5018906;28;20424;-78
2024/02/24 06:08:50;;;;;;;4.43;1.23;;;3.70;99.90;;;-148.53;100.00;63986.66;5011883;28;20042;-78
2024/02/24 06:11:17;;;;;;;2.97;1.15;;;3.70;99.90;;;-148.53;100.00;63986.66;5012810;28;20049;-79
2024/02/24 06:13:46;;;;;;;3.60;1.15;;;3.70;99.90;;;-148.53;100.00;63986.66;5027669;28;20046;-78
2024/02/24 06:16:11;;;;;;;4.22;1.30;;;3.70;99.90;;;-148.53;100.00;63986.66;5040206;28;20052;-79
2024/02/24 06:18:37;;;;;;;3.83;1.00;;;3.70;99.90;;;-148.53;100.00;63986.66;5021316;28;20490;-77
2024/02/24 06:21:03;;;;;;;7.47;1.35;;;3.70;99.90;;;-148.53;100.00;63986.66;5028165;28;20034;-78
2024/02/24 06:23:30;;;;;;;6.43;1.60;;;3.70;99.90;;;-148.53;100.00;63986.66;5020768;28;20034;-77
2024/02/24 06:25:56;;;;;;;5.38;1.20;;;3.60;99.90;;;-148.53;100.00;63986.66;5012093;28;20041;-78
2024/02/24 06:28:22;;;;;;;2.65;1.25;;;3.60;99.90;;;-148.53;100.00;63986.66;5019934;28;20069;-80
2024/02/24 06:30:47;;;;;;;5.40;1.50;;;3.60;99.90;;;-148.53;100.00;63986.66;5018520;28;20481;-77
2024/02/24 06:33:13;;;;;;;3.80;1.30;;;3.70;99.90;;;-148.53;100.00;63986.66;5025772;28;20034;-79
2024/02/24 06:35:39;;;;;;;6.72;1.88;;;3.80;99.90;;;-148.53;100.00;63986.66;5018185;28;20405;-80
2024/02/24 06:38:05;;;;;;;4.10;1.17;;;3.80;99.90;;;-148.53;100.00;63986.66;5028765;28;20030;-79
2024/02/24 06:40:30;;;;;;;4.13;1.30;;;3.90;99.90;;;-148.53;100.00;63986.66;5030838;28;20448;-79
2024/02/24 06:42:56;;;;;;;3.90;1.30;;;4.00;99.90;;;-148.53;100.00;63986.66;5022016;28;20049;-80
2024/02/24 06:45:22;;;;;;;4.55;1.00;;;4.10;99.90;;;-148.53;100.00;63986.66;5019447;28;20042;-79
2024/02/24 06:47:47;;;;;;;6.13;1.40;;;4.30;99.90;;;-148.53;100.00;63986.66;5015703;28;20046;-81
2024/02/24 06:50:13;;;;;;;3.90;1.38;;;4.40;99.90;;;-148.53;100.00;63986.66;5016040;28;20045;-81
2024/02/24 06:52:39;;;;;;;4.10;1.63;;;4.50;99.90;;;-148.53;100.00;63986.66;5021449;28;20049;-81
2024/02/24 06:55:05;;;;;;;3.20;1.30;;;4.50;99.90;;;-148.53;100.00;63986.66;5016869;28;20132;-81
2024/02/24 06:57:30;;;;;;;6.22;1.60;;;4.60;99.90;;;-148.53;100.00;63986.66;5031106;28;20042;-80
2024/02/24 06:59:56;;;;;;;3.90;1.40;;;4.70;99.90;;;-148.53;100.00;63986.66;5037272;28;20042;-79
2024/02/24 07:02:22;;;;;;;4.20;1.20;;;4.70;99.90;;;-148.53;100.00;63986.66;5014357;28;20038;-79
2024/02/24 07:04:47;;;;;;;4.90;1.55;;;4.70;99.90;;;-148.53;100.00;63986.66;5018429;28;20049;-79
2024/02/24 07:07:13;;;;;;;4.97;1.15;;;4.80;99.90;;;-148.53;100.00;63986.66;5031131;28;20033;-80
2024/02/24 07:09:39;;;;;;;5.55;1.50;;;4.80;99.90;;;-148.53;100.00;63986.66;5031220;28;20037;-78
2024/02/24 07:12:06;;;;;;;7.90;1.40;;;4.80;99.90;;;-148.53;100.00;63986.66;5031656;28;20489;-79
2024/02/24 07:14:33;;;;;;;4.53;1.02;;;4.70;99.90;;;-148.53;100.00;63986.66;5035717;28;20046;-79
2024/02/24 07:16:58;;;;;;;4.03;1.20;;;4.70;99.90;;;-148.53;100.00;63986.66;5035024;28;20119;-78
2024/02/24 07:19:24;;;;;;;4.68;1.30;;;4.70;99.90;;;-148.53;100.00;63986.66;5024815;28;20042;-79
2024/02/24 07:21:50;;;;;;;4.65;1.27;;;4.70;99.90;;;-148.53;100.00;63986.66;5027797;28;20038;-78
2024/02/24 07:24:15;;;;;;;4.97;1.48;;;4.70;99.90;;;-148.53;100.00;63986.66;5034968;28;20033;-79
2024/02/24 07:26:44;;;;;;;6.00;1.38;;;4.70;99.90;;;-148.53;100.00;63986.66;5020790;28;20493;-79
2024/02/24 07:29:10;;;;;;;6.70;1.35;;;4.80;99.90;;;-148.53;100.00;63986.66;5018378;28;20436;-79
2024/02/24 07:31:37;;;;;;;5.50;1.48;;;4.90;99.90;;;-148.53;100.00;63986.66;5020339;28;20098;-78
2024/02/24 07:34:03;;;;;;;6.60;1.50;;;4.90;99.90;;;-148.53;100.00;63986.66;5028588;28;20382;-78
2024/02/24 07:36:32;;;;;;;3.75;1.20;;;5.10;99.90;;;-148.53;100.00;63986.66;5045728;28;20041;-79
2024/02/24 07:38:58;;;;;;;5.35;1.30;;;5.30;99.90;;;-148.53;100.00;63986.66;5042213;28;20068;-77
2024/02/24 07:41:23;;;;;;;4.88;1.25;;;5.60;99.90;;;-148.53;100.00;63986.66;5026217;28;20037;-77
2024/02/24 07:43:50;;;;;;;6.45;1.63;;;5.70;99.90;;;-148.53;100.00;63986.66;5021716;28;20040;-77
2024/02/24 07:46:31;;;;;;;4.38;1.42;;;5.90;99.90;;;-148.53;100.00;63986.66;5027392;28;20120;-77
2024/02/24 07:48:59;;;;;;;3.28;1.13;;;6.10;99.90;;;-148.53;100.00;63986.66;5027546;28;20088;-77
2024/02/24 07:51:26;;;;;;;;;;;6.10;99.90;;;-148.53;100.00;63986.66;5021527;28;20041;-77
2024/02/24 07:53:52;;;;;;;3.25;1.30;;;6.00;99.90;;;-148.53;100.00;63986.66;5015423;28;19963;-77
2024/02/24 07:56:19;;;;;;;2.75;1.25;;;6.00;99.90;;;-148.53;100.00;63986.66;5026577;28;20037;-78
2024/02/24 07:58:45;;;;;;;4.18;1.65;;;6.10;99.90;;;-148.53;100.00;63986.66;5022525;28;20034;-78
2024/02/24 08:01:11;;;;;;;6.03;1.40;;;6.30;99.90;;;-148.53;100.00;63986.66;5020879;28;20041;-78
2024/02/24 08:03:36;;;;;;;3.50;1.23;;;6.40;99.90;;;-148.53;100.00;63986.66;5014371;28;20060;-76
2024/02/24 08:06:02;;;;;;;2.30;1.08;;;6.50;99.90;;;-148.53;100.00;63986.66;5022096;28;20397;-76
2024/02/24 08:08:28;;;;;;;4.75;1.10;;;6.60;99.90;;;-148.53;100.00;63986.66;5025010;28;20141;-76
2024/02/24 08:10:53;;;;;;;4.78;1.40;;;6.50;99.90;;;-148.53;100.00;63986.66;5022530;28;20125;-76
2024/02/24 08:13:20;;;;;;;2.72;1.10;;;6.60;99.90;;;-148.53;100.00;63986.66;5019591;28;20045;-77
2024/02/24 08:15:45;;;;;;;7.80;3.17;;;6.60;99.90;;;-148.53;100.00;63986.66;5025115;28;20452;-77
2024/02/24 08:18:11;;;;;;;3.38;1.20;;;6.60;99.90;;;-148.53;100.00;63986.66;5025158;28;20036;-77
2024/02/24 08:20:37;;;;;;;2.72;1.10;;;6.70;99.90;;;-148.53;100.00;63986.66;5017188;28;20470;-78
2024/02/24 08:23:03;;;;;;;4.85;1.20;;;6.80;99.90;;;-148.53;100.00;63986.66;5023080;28;20033;-77
2024/02/24 08:25:29;;;;;;;4.55;1.10;;;6.90;99.90;;;-148.53;100.00;63986.66;5026823;28;20052;-78
2024/02/24 08:27:54;;;;;;;3.63;1.05;;;6.90;99.90;;;-148.53;100.00;63986.66;5017402;28;20813;-77
2024/02/24 08:30:20;;;;;;;5.13;1.23;;;7.00;99.90;;;-148.53;100.00;63986.66;5020971;28;20073;-77
2024/02/24 08:32:46;;;;;;;2.88;0.98;;;7.10;99.90;;;-148.53;100.00;63986.66;5027573;28;20045;-77
2024/02/24 08:35:12;;;;;;;2.95;1.25;;;7.20;99.90;;;-148.53;100.00;63986.66;5019440;28;20596;-76
2024/02/24 08:37:37;;;;;;;3.47;1.38;;;7.40;99.90;;;-148.53;100.00;63986.66;5018062;28;20042;-77
2024/02/24 08:40:03;;;;;;;5.05;1.35;;;7.50;99.90;;;-148.53;100.00;63986.66;5030467;28;20034;-77
2024/02/24 08:42:29;;;;;;;4.68;1.00;;;7.60;99.90;;;-148.53;100.00;63986.66;5033160;28;20500;-77
2024/02/24 08:44:56;;;;;;;3.05;0.90;;;7.70;99.90;;;-148.53;100.00;63986.66;5016580;28;20045;-77
2024/02/24 08:47:21;;;;;;;4.72;1.23;;;7.80;99.90;;;-148.53;100.00;63986.66;5020028;28;20075;-77
2024/02/24 08:49:47;;;;;;;2.08;0.95;;;7.70;99.90;;;-148.53;100.00;63986.66;5028090;28;20033;-77
2024/02/24 08:52:13;;;;;;;2.55;1.00;;;7.80;99.90;;;-148.53;100.00;63986.66;5029309;28;20061;-77
2024/02/24 08:54:38;;;;;;;3.00;1.00;;;7.80;99.90;;;-148.53;100.00;63986.66;5013287;28;20045;-77
2024/02/24 08:57:06;;;;;;;2.05;0.90;;;7.80;99.90;;;-148.53;100.00;63986.66;5026492;28;20038;-77
2024/02/24 08:59:32;;;;;;;3.67;0.95;;;7.70;99.90;;;-148.53;100.00;63986.66;5018995;28;20050;-77
2024/02/24 09:01:57;;;;;;;3.55;1.30;;;7.80;99.90;;;-148.53;100.00;63986.66;5027879;28;20044;-77
2024/02/24 09:04:23;;;;;;;2.75;1.20;;;7.70;99.90;;;-148.53;100.00;63986.66;5019287;28;20343;-78
2024/02/24 09:06:49;;;;;;;7.32;1.30;;;7.60;99.90;;;-148.53;100.00;63986.66;5039090;28;20037;-78
2024/02/24 09:09:16;;;;;;;4.13;1.02;;;7.60;99.90;;;-148.53;100.00;63986.66;5028843;28;20068;-77
2024/02/24 09:11:43;;;;;;;2.72;1.00;;;7.50;99.90;;;-148.53;100.00;63986.66;5018318;28;20042;-78
2024/02/24 09:14:09;;;;;;;3.90;1.20;;;7.60;99.90;;;-148.53;100.00;63986.66;5022085;28;20095;-77
2024/02/24 09:16:35;;;;;;;2.80;1.20;;;7.80;99.90;;;-148.53;100.00;63986.66;5013465;28;20065;-77
2024/02/24 09:19:01;;;;;;;4.38;1.10;;;7.90;99.90;;;-148.53;100.00;63986.66;5013622;28;20041;-78
2024/02/24 09:21:28;;;;;;;4.35;1.00;;;8.00;99.90;;;-148.53;100.00;63986.66;5025604;28;20050;-77
2024/02/24 09:23:54;;;;;;;3.17;1.38;;;7.90;99.90;;;-148.53;100.00;63986.66;5017991;28;20482;-78
2024/02/24 09:26:20;;;;;;;4.25;1.15;;;7.90;99.90;;;-148.53;100.00;63986.66;5028263;28;20489;-77
2024/02/24 09:28:46;;;;;;;2.97;1.20;;;8.10;99.90;;;-148.53;100.00;63986.66;5024082;28;20030;-78
2024/02/24 09:31:12;;;;;;;4.90;1.30;;;8.30;99.90;;;-148.53;100.00;63986.66;5028577;28;20060;-77
2024/02/24 09:33:38;;;;;;;5.30;1.30;;;8.50;99.90;;;-148.53;100.00;63986.66;5015142;28;20076;-77
2024/02/24 09:36:04;;;;;;;5.25;1.20;;;8.70;99.90;;;-148.53;100.00;63986.66;5021960;28;20128;-77
2024/02/24 09:38:30;;;;;;;4.53;1.30;;;8.80;99.90;;;-148.53;100.00;63986.66;5013402;28;20049;-78
2024/02/24 09:40:55;;;;;;;4.43;1.20;;;8.80;99.90;;;-148.53;100.00;63986.66;5028011;28;20034;-77
2024/02/24 09:43:22;;;;;;;3.60;1.20;;;8.70;99.90;;;-148.53;100.00;63986.66;5022701;28;20053;-76
2024/02/24 09:45:48;;;;;;;2.75;1.33;;;8.60;99.90;;;-148.53;100.00;63986.66;5026820;28;20033;-77
2024/02/24 09:48:15;;;;;;;2.75;0.90;;;8.50;99.90;;;-148.53;100.00;63986.66;5029207;28;20037;-76
2024/02/24 09:50:41;;;;;;;2.95;1.00;;;8.50;99.90;;;-148.53;100.00;63986.66;5019463;28;20113;-77
2024/02/24 09:53:07;;;;;;;3.92;1.08;;;8.50;99.90;;;-148.53;100.00;63986.66;5021443;28;20123;-77
2024/02/24 09:55:35;;;;;;;3.67;1.10;;;8.60;99.90;;;-148.53;100.00;63986.66;5017705;28;20406;-77
2024/02/24 09:58:03;;;;;;;3.33;1.02;;;8.80;99.90;;;-148.53;100.00;63986.66;5021330;28;20033;-77
2024/02/24 10:00:28;;;;;;;3.15;1.10;;;9.20;99.90;;;-148.53;100.00;63986.66;5023282;28;20029;-76